Time;durP1;ratioP1;P1;durP2;ratioP2;P2;SDS_P1;SDS_P2;PMS_P1;PMS_P2;Temp;Humidity;BMP_temperature;BMP_pressure;BME280_temperature;BME280_humidity;BME280_pressure;Samples;Min_cycle;Max_cycle;Signal;HPM_P1;HPM_P2
2024/01/22 00:00:10;;;;;;;32.60;19.10;;;;;;;-1.24;84.31;101524.95;213828;1272;67242;-75
2024/01/22 00:05:12;;;;;;;36.20;20.00;;;;;;;-1.25;84.33;101522.20;213945;1272;61268;-75
2024/01/22 00:10:08;;;;;;;32.00;17.90;;;;;;;-1.25;84.30;101518.23;213957;1269;59684;-75
2024/01/22 00:15:01;;;;;;;28.80;18.40;;;;;;;-1.27;84.22;101508.94;213968;1268;72739;-74
2024/01/22 00:19:54;;;;;;;29.20;16.40;;;;;;;-1.33;84.09;101506.75;213855;1272;61245;-74
2024/01/22 00:24:46;;;;;;;29.30;17.80;;;;;;;-1.40;84.19;101496.70;214005;1268;61355;-75
2024/01/22 00:29:39;;;;;;;36.60;19.50;;;;;;;-1.43;84.19;101495.23;213912;1268;61359;-74
2024/01/22 00:34:32;;;;;;;32.60;18.10;;;;;;;-1.44;84.22;101491.27;213792;1268;61289;-74
2024/01/22 00:39:26;;;;;;;30.20;17.00;;;;;;;-1.44;84.17;101487.02;213920;1268;61383;-75
2024/01/22 00:44:19;;;;;;;30.70;17.80;;;;;;;-1.43;84.11;101474.18;213888;1272;61260;-74
2024/01/22 00:49:11;;;;;;;34.00;19.80;;;;;;;-1.43;84.01;101461.41;214077;1268;61430;-74
2024/01/22 00:54:04;;;;;;;33.00;18.60;;;;;;;-1.43;83.91;101448.01;214097;1268;61202;-74
2024/01/22 00:58:58;;;;;;;28.80;17.30;;;;;;;-1.41;83.80;101447.42;213999;1271;61288;-74
2024/01/22 01:03:51;;;;;;;31.00;18.30;;;;;;;-1.46;83.69;101454.23;213857;1268;72662;-74
2024/01/22 01:08:43;;;;;;;32.20;18.00;;;;;;;-1.53;83.61;101454.83;214046;1268;61492;-74
2024/01/22 01:19:27;;;;;;;32.20;18.40;;;;;;;-1.72;83.60;101430.59;213709;1272;61364;-74
2024/01/22 01:24:20;;;;;;;30.30;16.70;;;;;;;-1.80;83.49;101418.92;214137;1272;74509;-74
2024/01/22 01:29:13;;;;;;;33.10;17.70;;;;;;;-1.88;83.45;101411.40;214095;1272;61277;-74
2024/01/22 01:34:06;;;;;;;25.00;14.60;;;;;;;-1.99;83.43;101412.41;214025;1272;161594;-74
2024/01/22 01:38:59;;;;;;;34.90;18.40;;;;;;;-2.07;83.54;101414.11;214132;1273;65872;-74
2024/01/22 01:43:52;;;;;;;30.20;17.50;;;;;;;-2.14;83.49;101409.65;214075;1267;61246;-74
2024/01/22 01:48:45;;;;;;;30.90;18.50;;;;;;;-2.22;83.52;101407.86;214003;1272;61303;-74
2024/01/22 01:53:39;;;;;;;29.10;16.40;;;;;;;-2.30;83.57;101400.30;214010;1270;61376;-74
2024/01/22 01:58:32;;;;;;;34.30;18.50;;;;;;;-2.35;83.50;101404.14;214110;1270;61282;-74
2024/01/22 02:03:25;;;;;;;32.50;17.90;;;;;;;-2.39;83.71;101396.00;214063;1269;66848;-74
2024/01/22 02:08:19;;;;;;;34.20;18.20;;;;;;;-2.41;83.63;101395.65;214092;1270;62741;-74
2024/01/22 02:13:12;;;;;;;28.10;15.70;;;;;;;-2.41;83.66;101405.69;214089;1270;61302;-74
2024/01/22 02:18:04;;;;;;;25.40;15.40;;;;;;;-2.43;83.63;101424.55;214109;1269;61351;-74
2024/01/22 02:23:04;;;;;;;33.70;16.20;;;;;;;-2.44;83.66;101414.77;214024;1272;61412;-74
2024/01/22 02:27:57;;;;;;;28.70;16.50;;;;;;;-2.45;83.52;101407.04;214069;1271;65759;-74
2024/01/22 02:32:50;;;;;;;30.00;16.80;;;;;;;-2.47;83.46;101399.92;214024;1270;61364;-74
2024/01/22 02:37:43;;;;;;;23.80;14.40;;;;;;;-2.50;83.40;101386.11;214128;1272;61296;-74
2024/01/22 02:42:35;;;;;;;28.70;15.30;;;;;;;-2.58;83.51;101387.20;214038;1268;61855;-74
2024/01/22 02:47:28;;;;;;;31.70;18.30;;;;;;;-2.62;83.55;101399.64;214053;1270;61355;-73
2024/01/22 02:52:21;;;;;;;28.90;16.00;;;;;;;-2.64;83.45;101394.13;214093;1270;61383;-74
2024/01/22 02:57:14;;;;;;;29.40;17.50;;;;;;;-2.66;83.32;101386.16;214088;1269;61271;-74
2024/01/22 03:02:07;;;;;;;28.60;16.30;;;;;;;-2.74;83.37;101375.94;214139;1270;61274;-74
2024/01/22 03:07:00;;;;;;;27.00;16.20;;;;;;;-2.83;83.34;101359.08;213998;1271;61341;-74
2024/01/22 03:11:53;;;;;;;33.30;18.40;;;;;;;-2.89;83.14;101341.94;214097;1270;61341;-74
2024/01/22 03:16:46;;;;;;;31.50;16.30;;;;;;;-2.88;83.52;101333.38;214087;1269;61386;-73
2024/01/22 03:21:39;;;;;;;31.60;16.90;;;;;;;-2.84;83.35;101325.67;214099;1269;61294;-74
2024/01/22 03:26:31;;;;;;;25.90;15.10;;;;;;;-2.79;83.35;101321.37;214190;1269;61235;-74
2024/01/22 03:31:27;;;;;;;33.20;16.30;;;;;;;-2.69;83.22;101327.73;214241;1270;61383;-74
2024/01/22 03:36:20;;;;;;;30.90;16.60;;;;;;;-2.62;82.83;101328.48;214163;1270;61392;-73
2024/01/22 03:41:14;;;;;;;24.70;14.90;;;;;;;-2.55;82.77;101333.61;214238;1270;67113;-74
2024/01/22 03:46:06;;;;;;;30.80;14.50;;;;;;;-2.50;82.74;101327.89;214107;1272;63650;-74
2024/01/22 03:50:59;;;;;;;32.10;16.30;;;;;;;-2.46;82.45;101309.85;214070;1271;61179;-75
2024/01/22 03:55:52;;;;;;;26.90;16.20;;;;;;;-2.40;82.25;101307.42;214051;1270;61392;-74
2024/01/22 04:00:45;;;;;;;31.50;15.10;;;;;;;-2.36;82.26;101308.93;214143;1270;61367;-74
2024/01/22 04:05:38;;;;;;;25.70;14.30;;;;;;;-2.36;82.18;101301.54;214053;1270;61375;-74
2024/01/22 04:10:31;;;;;;;26.10;14.90;;;;;;;-2.36;82.07;101289.92;214031;1268;61299;-74
2024/01/22 04:15:24;;;;;;;23.90;15.70;;;;;;;-2.39;81.86;101284.93;214023;1268;61428;-74
2024/01/22 04:20:17;;;;;;;30.60;15.90;;;;;;;-2.44;81.79;101287.26;214126;1272;61331;-74
2024/01/22 04:25:10;;;;;;;21.80;13.00;;;;;;;-2.49;81.63;101288.24;214053;1270;61438;-74
2024/01/22 04:30:03;;;;;;;24.40;14.10;;;;;;;-2.55;81.62;101286.41;214151;1269;61285;-74
2024/01/22 04:34:55;;;;;;;24.10;14.40;;;;;;;-2.59;81.61;101273.58;214131;1268;61308;-74
2024/01/22 04:39:48;;;;;;;25.10;15.60;;;;;;;-2.59;81.47;101257.39;214059;1268;61286;-74
2024/01/22 04:44:41;;;;;;;29.70;14.60;;;;;;;-2.59;81.54;101253.37;214071;1269;61421;-73
2024/01/22 04:49:33;;;;;;;28.40;15.40;;;;;;;-2.56;81.18;101258.86;214140;1272;61359;-74
2024/01/22 04:54:26;;;;;;;24.00;14.00;;;;;;;-2.53;81.13;101246.65;214072;1272;62156;-74
2024/01/22 04:59:19;;;;;;;23.80;14.60;;;;;;;-2.55;80.90;101245.54;214155;1268;61277;-74
2024/01/22 05:04:12;;;;;;;22.20;13.80;;;;;;;-2.55;80.58;101236.47;214001;1270;61269;-74
2024/01/22 05:09:06;;;;;;;26.40;13.50;;;;;;;-2.58;80.50;101225.94;214105;1268;61411;-74
2024/01/22 05:13:58;;;;;;;24.80;14.50;;;;;;;-2.63;80.55;101214.64;214143;1268;73425;-74
2024/01/22 05:18:53;;;;;;;28.00;15.30;;;;;;;-2.69;80.23;101208.15;214122;1272;61342;-74
2024/01/22 05:23:46;;;;;;;24.70;12.50;;;;;;;-2.71;80.16;101200.17;214084;1268;61366;-74
2024/01/22 05:28:39;;;;;;;22.60;13.20;;;;;;;-2.74;80.11;101196.91;214183;1268;61335;-74
2024/01/22 05:33:32;;;;;;;24.70;13.70;;;;;;;-2.78;80.02;101186.21;214114;1269;61345;-74
2024/01/22 05:38:25;;;;;;;23.20;13.20;;;;;;;-2.79;79.86;101186.45;214015;1269;61312;-74
2024/01/22 05:43:18;;;;;;;26.30;13.90;;;;;;;-2.79;79.80;101172.91;214025;1268;61834;-73
2024/01/22 05:48:10;;;;;;;23.80;13.50;;;;;;;-2.79;79.63;101169.84;214079;1268;61976;-74
2024/01/22 05:53:04;;;;;;;24.30;12.40;;;;;;;-2.80;79.56;101176.05;214077;1270;61289;-73
2024/01/22 05:57:57;;;;;;;26.30;12.90;;;;;;;-2.77;79.28;101162.16;214081;1268;61254;-73
2024/01/22 06:02:49;;;;;;;22.50;12.20;;;;;;;-2.76;79.49;101151.94;214020;1268;61303;-74
2024/01/22 06:07:43;;;;;;;22.70;13.20;;;;;;;-2.72;79.26;101143.95;213976;1268;61312;-74
2024/01/22 06:12:35;;;;;;;20.30;11.30;;;;;;;-2.64;79.25;101128.02;214069;1268;61268;-74
2024/01/22 06:17:30;;;;;;;24.10;12.20;;;;;;;-2.62;78.58;101115.44;214111;1268;61306;-73
2024/01/22 06:22:24;;;;;;;20.80;12.70;;;;;;;-2.60;78.47;101115.78;214059;1268;61354;-73
2024/01/22 06:27:16;;;;;;;20.90;10.70;;;;;;;-2.59;78.36;101106.71;214060;1272;61341;-74
2024/01/22 06:32:10;;;;;;;26.10;11.90;;;;;;;-2.60;78.27;101110.35;214058;1268;61366;-73
2024/01/22 06:37:04;;;;;;;22.40;13.20;;;;;;;-2.58;78.06;101105.07;214046;1268;62096;-73
2024/01/22 06:41:57;;;;;;;23.40;13.70;;;;;;;-2.55;77.69;101087.34;213973;1268;67816;-74
2024/01/22 06:46:50;;;;;;;20.10;11.80;;;;;;;-2.50;77.68;101057.47;214166;1268;61317;-74
2024/01/22 06:51:42;;;;;;;22.20;12.10;;;;;;;-2.48;77.27;101043.72;214019;1268;61315;-74
2024/01/22 06:56:39;;;;;;;19.60;11.00;;;;;;;-2.40;76.91;101031.86;214045;1268;72602;-74
2024/01/22 07:01:31;;;;;;;19.20;11.30;;;;;;;-2.35;76.82;101030.73;214000;1268;61322;-74
2024/01/22 07:06:24;;;;;;;21.50;11.20;;;;;;;-2.33;76.75;101035.83;214091;1268;61300;-74
2024/01/22 07:11:17;;;;;;;17.60;10.70;;;;;;;-2.27;76.51;101039.27;214128;1272;61291;-74
2024/01/22 07:16:11;;;;;;;21.00;10.50;;;;;;;-2.17;76.51;101024.72;214059;1270;61387;-76
2024/01/22 07:21:50;;;;;;;17.80;10.70;;;;;;;-1.97;75.88;101016.67;214113;1270;72391;-75
2024/01/22 07:26:49;;;;;;;21.90;11.30;;;;;;;-1.65;75.73;101019.14;212116;1276;61416;-74
2024/01/22 07:31:41;;;;;;;19.00;9.90;;;;;;;-1.39;74.99;101022.25;212250;1279;61297;-74
2024/01/22 07:36:34;;;;;;;17.90;9.90;;;;;;;-1.22;74.50;101032.48;212394;1276;61346;-75
2024/01/22 07:41:27;;;;;;;19.80;10.80;;;;;;;-1.12;74.23;101028.40;212180;1279;61392;-75
2024/01/22 07:46:20;;;;;;;17.00;10.90;;;;;;;-1.02;74.64;101031.28;212252;1276;61409;-74
2024/01/22 07:51:13;;;;;;;20.00;10.90;;;;;;;-0.88;74.40;101031.06;212261;1278;61490;-75
2024/01/22 07:56:06;;;;;;;21.40;10.60;;;;;;;-0.70;73.75;101028.53;212265;1277;61403;-75
2024/01/22 08:00:59;;;;;;;17.30;9.10;;;;;;;-0.48;73.81;101036.48;212369;1268;61289;-75
2024/01/22 08:05:52;;;;;;;17.50;10.10;;;;;;;-0.33;73.08;101024.47;214100;1268;61357;-73
2024/01/22 08:10:46;;;;;;;15.80;9.60;;;;;;;-0.26;73.28;101020.83;213850;1268;61270;-74
2024/01/22 08:15:40;;;;;;;13.70;9.00;;;;;;;-0.17;72.57;101009.34;213931;1268;61076;-74
2024/01/22 08:20:34;;;;;;;15.00;9.40;;;;;;;-0.08;72.16;100999.39;214016;1268;61306;-74
2024/01/22 08:25:28;;;;;;;18.00;10.20;;;;;;;-0.01;71.81;100985.64;214073;1270;61361;-72
2024/01/22 08:30:21;;;;;;;12.90;9.50;;;;;;;0.06;71.88;100976.40;213984;1268;74500;-74
2024/01/22 08:35:20;;;;;;;15.60;9.80;;;;;;;0.20;71.67;100968.55;214031;1268;72284;-74
2024/01/22 08:40:16;;;;;;;17.50;10.70;;;;;;;0.35;71.10;100964.04;214000;1272;61293;-74
2024/01/22 08:45:09;;;;;;;15.00;10.70;;;;;;;0.49;71.01;100952.59;214036;1270;66804;-74
2024/01/22 08:50:04;;;;;;;16.60;9.70;;;;;;;0.58;70.62;100938.14;214042;1270;61357;-74
2024/01/22 08:54:57;;;;;;;14.50;10.00;;;;;;;0.61;70.69;100924.20;213961;1268;74670;-76
2024/01/22 08:59:50;;;;;;;18.30;10.40;;;;;;;0.66;70.68;100913.05;213938;1268;72926;-73
2024/01/22 09:04:43;;;;;;;18.30;10.80;;;;;;;0.67;70.08;100910.04;214008;1269;61291;-75
2024/01/22 09:09:36;;;;;;;17.80;9.60;;;;;;;0.69;70.21;100904.72;214148;1268;66370;-73
2024/01/22 09:14:29;;;;;;;18.80;10.80;;;;;;;0.76;69.89;100890.96;214082;1268;61277;-73
2024/01/22 09:19:22;;;;;;;16.80;9.70;;;;;;;0.83;69.42;100877.67;214108;1268;74648;-72
2024/01/22 09:24:15;;;;;;;15.80;9.80;;;;;;;0.91;69.16;100870.46;214128;1268;72735;-73
2024/01/22 09:29:10;;;;;;;14.30;9.70;;;;;;;0.98;69.27;100858.27;214229;1268;62689;-73
2024/01/22 09:34:04;;;;;;;15.30;8.50;;;;;;;1.08;69.14;100851.01;214150;1268;61380;-73
2024/01/22 09:38:58;;;;;;;15.70;10.00;;;;;;;1.27;69.24;100844.00;213973;1268;61300;-73
2024/01/22 09:43:51;;;;;;;15.80;9.20;;;;;;;1.48;68.87;100838.36;214101;1268;61276;-74
2024/01/22 09:48:44;;;;;;;12.80;8.60;;;;;;;1.62;68.51;100832.78;213954;1268;72692;-74
2024/01/22 09:53:39;;;;;;;12.80;8.60;;;;;;;1.67;67.77;100827.80;214081;1271;61380;-73
2024/01/22 09:58:43;;;;;;;15.30;9.00;;;;;;;1.67;67.97;100816.67;214105;1268;66670;-73
2024/01/22 10:03:36;;;;;;;15.90;8.70;;;;;;;1.68;67.57;100806.33;214053;1268;61278;-74
2024/01/22 10:08:30;;;;;;;14.20;9.40;;;;;;;1.71;67.66;100793.98;214020;1268;73936;-73
2024/01/22 10:13:23;;;;;;;14.40;8.70;;;;;;;1.74;67.51;100779.45;214031;1268;74748;-73
2024/01/22 10:18:18;;;;;;;14.40;9.00;;;;;;;1.78;66.70;100773.52;213858;1268;61326;-74
2024/01/22 10:23:13;;;;;;;14.80;8.50;;;;;;;1.81;67.01;100763.29;214060;1268;65602;-75
2024/01/22 10:28:18;;;;;;;16.60;8.50;;;;;;;1.89;66.65;100750.20;213864;1268;61144;-76
2024/01/22 10:33:13;;;;;;;14.10;9.40;;;;;;;1.98;66.70;100736.44;213845;1268;75539;-79
2024/01/22 10:38:08;;;;;;;15.50;9.60;;;;;;;1.99;65.97;100721.98;213965;1268;71468;-73
2024/01/22 10:43:18;;;;;;;13.40;8.80;;;;;;;2.01;66.19;100712.16;213990;1268;61403;-74
2024/01/22 10:48:12;;;;;;;15.10;9.90;;;;;;;2.04;65.81;100688.73;213919;1268;67103;-74
2024/01/22 10:53:20;;;;;;;15.60;10.00;;;;;;;2.07;65.34;100675.52;213900;1268;61886;-74
2024/01/22 10:58:20;;;;;;;13.70;9.30;;;;;;;2.07;65.65;100673.14;214115;1268;73065;-74
2024/01/22 11:03:18;;;;;;;15.70;9.60;;;;;;;2.14;65.66;100612.11;214028;1268;71159;-74
2024/01/22 11:08:14;;;;;;;17.10;9.90;;;;;;;2.31;64.88;100635.64;214017;1268;61296;-74
2024/01/22 11:13:08;;;;;;;17.30;9.80;;;;;;;2.45;64.37;100623.84;214030;1268;65984;-74
2024/01/22 11:18:01;;;;;;;14.10;9.00;;;;;;;2.56;64.21;100617.17;213947;1268;61484;-74
2024/01/22 11:23:02;;;;;;;12.60;8.40;;;;;;;2.67;64.84;100603.66;214141;1268;74710;-73
2024/01/22 11:28:12;;;;;;;15.70;9.00;;;;;;;2.83;63.74;100591.05;214071;1268;71119;-73
2024/01/22 11:33:24;;;;;;;13.10;8.40;;;;;;;3.02;63.46;100582.17;214008;1268;61362;-74
2024/01/22 11:38:43;;;;;;;14.00;9.00;;;;;;;3.22;62.20;100568.14;213994;1271;65646;-74
2024/01/22 11:43:36;;;;;;;17.30;10.60;;;;;;;3.40;62.96;100555.25;214042;1268;61316;-74
2024/01/22 11:48:29;;;;;;;13.90;9.30;;;;;;;3.59;62.51;100546.27;214066;1267;75445;-74
2024/01/22 11:53:23;;;;;;;15.20;10.20;;;;;;;3.78;61.87;100549.48;214042;1268;71154;-73
2024/01/22 11:58:16;;;;;;;16.80;9.80;;;;;;;4.12;61.78;100564.23;214049;1268;61345;-73
2024/01/22 12:03:12;;;;;;;15.20;9.30;;;;;;;4.48;60.45;100556.06;213897;1268;61268;-71
2024/01/22 12:08:13;;;;;;;17.30;9.10;;;;;;;4.47;61.27;100555.66;213979;1268;61194;-74
2024/01/22 12:13:08;;;;;;;16.90;10.40;;;;;;;4.40;61.22;100549.56;214147;1268;74854;-72
2024/01/22 12:18:02;;;;;;;15.00;9.40;;;;;;;4.24;61.45;100549.09;213956;1270;72528;-71
2024/01/22 12:22:59;;;;;;;14.80;9.10;;;;;;;4.07;61.25;100543.80;214180;1268;61278;-72
2024/01/22 12:27:53;;;;;;;14.60;8.50;;;;;;;3.99;61.14;100518.59;214091;1268;68265;-72
2024/01/22 12:32:53;;;;;;;16.00;9.20;;;;;;;3.91;61.36;100509.52;214108;1268;61290;-72
2024/01/22 12:37:46;;;;;;;16.70;8.90;;;;;;;3.90;61.37;100512.90;214146;1268;74769;-72
2024/01/22 12:42:39;;;;;;;14.70;9.40;;;;;;;3.92;61.34;100508.02;214062;1268;61291;-73
2024/01/22 12:47:33;;;;;;;14.30;8.80;;;;;;;3.87;60.87;100493.41;214075;1268;61286;-72
2024/01/22 12:52:27;;;;;;;13.50;9.10;;;;;;;3.79;61.08;100483.33;213985;1268;68084;-72
2024/01/22 12:57:20;;;;;;;14.30;10.20;;;;;;;3.74;60.99;100477.83;214129;1268;61209;-72
2024/01/22 13:02:14;;;;;;;12.70;8.40;;;;;;;3.68;61.43;100478.45;214186;1271;61251;-73
2024/01/22 13:07:08;;;;;;;15.60;9.20;;;;;;;3.62;61.47;100482.63;214159;1272;72581;-73
2024/01/22 13:12:01;;;;;;;13.50;7.60;;;;;;;3.58;61.04;100475.47;214107;1268;61919;-73
2024/01/22 13:16:55;;;;;;;16.50;10.90;;;;;;;3.54;60.52;100465.16;213943;1268;68383;-73
2024/01/22 13:21:47;;;;;;;15.70;9.80;;;;;;;3.51;61.09;100448.91;213870;1268;61256;-73
2024/01/22 13:26:40;;;;;;;17.40;9.90;;;;;;;3.46;61.20;100447.86;214027;1268;61775;-72
2024/01/22 13:31:33;;;;;;;17.80;9.90;;;;;;;3.38;61.16;100424.42;213981;1272;61374;-72
2024/01/22 13:36:26;;;;;;;17.10;10.40;;;;;;;3.30;61.19;100415.52;213705;1268;317078;-72
2024/01/22 13:41:20;;;;;;;18.70;10.40;;;;;;;3.23;60.53;100416.92;214028;1272;61299;-72
2024/01/22 13:46:13;;;;;;;13.50;9.00;;;;;;;3.15;61.06;100400.64;214066;1268;61300;-72
2024/01/22 13:51:06;;;;;;;18.00;10.20;;;;;;;3.05;61.38;100392.38;214029;1268;61886;-71
2024/01/22 13:55:59;;;;;;;21.00;11.10;;;;;;;2.98;61.30;100400.66;214008;1268;61351;-72
2024/01/22 14:00:52;;;;;;;17.10;10.40;;;;;;;2.93;61.46;100410.73;214059;1272;61389;-72
2024/01/22 14:05:45;;;;;;;15.50;9.30;;;;;;;2.89;61.74;100404.56;214041;1268;61363;-73
2024/01/22 14:10:38;;;;;;;15.70;9.70;;;;;;;2.82;61.92;100389.20;214051;1268;61274;-72
2024/01/22 14:15:32;;;;;;;14.20;9.40;;;;;;;2.78;61.45;100373.41;213708;1268;74687;-72
2024/01/22 14:20:25;;;;;;;15.70;10.50;;;;;;;2.79;61.32;100370.04;213910;1268;71286;-73
2024/01/22 14:25:19;;;;;;;18.30;9.00;;;;;;;2.80;61.11;100355.21;213881;1268;61345;-73
2024/01/22 14:30:14;;;;;;;15.20;9.20;;;;;;;2.80;61.17;100358.64;213947;1268;65538;-73
2024/01/22 14:35:07;;;;;;;13.40;8.40;;;;;;;2.82;61.20;100351.35;213910;1268;61278;-73
2024/01/22 14:40:00;;;;;;;15.20;8.80;;;;;;;2.80;61.62;100343.39;213952;1268;61296;-72
2024/01/22 14:44:54;;;;;;;17.00;9.20;;;;;;;2.76;61.61;100334.34;213820;1272;61313;-72
2024/01/22 14:49:47;;;;;;;15.50;9.10;;;;;;;2.77;60.84;100326.14;214091;1268;61268;-72
2024/01/22 14:54:39;;;;;;;17.00;9.40;;;;;;;2.83;61.14;100310.83;214093;1268;61364;-73
2024/01/22 14:59:35;;;;;;;16.10;9.70;;;;;;;2.86;60.81;100309.94;214097;1268;61287;-72
2024/01/22 15:04:28;;;;;;;16.40;9.20;;;;;;;2.87;60.72;100308.27;214190;1268;74595;-72
2024/01/22 15:09:21;;;;;;;17.80;10.70;;;;;;;2.88;60.72;100297.02;214030;1268;61419;-73
2024/01/22 15:14:15;;;;;;;16.70;10.00;;;;;;;2.86;61.10;100281.66;214074;1268;61396;-73
2024/01/22 15:19:08;;;;;;;15.20;9.80;;;;;;;2.78;61.42;100296.27;213937;1268;65840;-72
2024/01/22 15:24:06;;;;;;;17.80;10.20;;;;;;;2.74;61.45;100297.45;213991;1271;61268;-72
2024/01/22 15:28:59;;;;;;;;;;;;;;;2.68;61.92;100307.30;214022;1268;72759;-72
2024/01/22 15:33:57;;;;;;;19.00;11.00;;;;;;;2.60;62.15;100305.27;213978;1268;70958;-73
2024/01/22 15:38:51;;;;;;;17.30;10.50;;;;;;;2.56;62.62;100290.88;214014;1268;61294;-73
2024/01/22 15:43:44;;;;;;;17.60;10.80;;;;;;;2.47;63.04;100287.45;213927;1268;68274;-72
2024/01/22 15:48:37;;;;;;;22.40;12.30;;;;;;;2.42;63.18;100295.91;213984;1268;61339;-71
2024/01/22 15:53:31;;;;;;;19.70;11.90;;;;;;;2.39;63.22;100285.89;213962;1268;73085;-71
2024/01/22 15:58:24;;;;;;;23.60;12.10;;;;;;;2.36;63.85;100289.31;213921;1268;73472;-72
2024/01/22 16:03:17;;;;;;;19.40;11.80;;;;;;;2.30;63.53;100292.19;214044;1272;61361;-72
2024/01/22 16:08:09;;;;;;;19.70;11.80;;;;;;;2.32;63.76;100294.30;214073;1268;61313;-72
2024/01/22 16:13:02;;;;;;;20.90;12.00;;;;;;;2.29;64.76;100288.86;213980;1268;61389;-72
2024/01/22 16:17:56;;;;;;;19.00;12.50;;;;;;;2.24;64.55;100284.23;214019;1268;61287;-72
2024/01/22 16:22:50;;;;;;;18.10;11.10;;;;;;;2.23;64.93;100272.36;214092;1268;70441;-72
2024/01/22 16:27:43;;;;;;;21.70;13.20;;;;;;;2.20;65.05;100263.02;213978;1268;61276;-72
2024/01/22 16:32:36;;;;;;;22.70;14.10;;;;;;;2.14;65.25;100263.10;213957;1268;65972;-72
2024/01/22 16:37:29;;;;;;;21.40;13.60;;;;;;;2.13;65.41;100266.61;214110;1268;61399;-72
2024/01/22 16:42:22;;;;;;;25.50;15.30;;;;;;;2.15;65.29;100268.41;214212;1270;74301;-72
2024/01/22 16:47:15;;;;;;;21.50;15.00;;;;;;;2.17;65.00;100268.20;214176;1268;71096;-72
2024/01/22 16:52:08;;;;;;;27.80;16.10;;;;;;;2.20;65.15;100257.88;214043;1268;61771;-72
2024/01/22 16:57:01;;;;;;;27.40;16.40;;;;;;;2.19;65.79;100253.22;214091;1268;61383;-72
2024/01/22 17:01:56;;;;;;;30.40;17.30;;;;;;;2.14;66.26;100254.55;214077;1268;61328;-72
2024/01/22 17:06:49;;;;;;;26.20;15.70;;;;;;;2.12;65.97;100260.61;213987;1272;74550;-72
2024/01/22 17:11:42;;;;;;;27.60;15.30;;;;;;;2.16;64.98;100270.20;213947;1268;61425;-72
2024/01/22 17:16:34;;;;;;;16.70;9.30;;;;;;;2.33;64.67;100269.52;214102;1268;61382;-72
2024/01/22 17:21:27;;;;;;;13.20;7.90;;;;;;;2.55;64.40;100246.35;213947;1271;61834;-72
2024/01/22 17:26:20;;;;;;;10.30;6.30;;;;;;;2.72;64.57;100246.02;214092;1268;61430;-72
2024/01/22 17:31:13;;;;;;;9.60;6.00;;;;;;;2.89;64.41;100250.66;214054;1272;61346;-71
2024/01/22 17:36:07;;;;;;;9.80;7.00;;;;;;;3.03;64.83;100238.03;214102;1268;61296;-72
2024/01/22 17:41:00;;;;;;;10.90;6.80;;;;;;;3.07;64.80;100235.95;214143;1268;61294;-72
2024/01/22 17:45:53;;;;;;;10.20;6.20;;;;;;;3.13;64.45;100219.08;214064;1273;61348;-71
2024/01/22 17:50:46;;;;;;;14.20;6.80;;;;;;;3.18;63.90;100202.30;214109;1272;61302;-71
2024/01/22 17:55:39;;;;;;;11.40;6.50;;;;;;;3.23;63.62;100201.83;214068;1271;61369;-71
2024/01/22 18:00:32;;;;;;;10.30;6.40;;;;;;;3.30;63.43;100200.02;214168;1271;61283;-72
2024/01/22 18:05:25;;;;;;;9.90;6.40;;;;;;;3.31;62.87;100200.39;213707;1268;64037;-71
2024/01/22 18:10:18;;;;;;;10.90;6.10;;;;;;;3.32;62.95;100192.55;213768;1268;61291;-72
2024/01/22 18:15:11;;;;;;;13.00;6.70;;;;;;;3.30;63.09;100185.11;213415;1271;61313;-72
2024/01/22 18:20:04;;;;;;;12.40;6.30;;;;;;;3.33;62.30;100173.92;213700;1273;61284;-71
2024/01/22 18:24:57;;;;;;;11.40;6.80;;;;;;;3.41;62.23;100167.87;213702;1272;73092;-71
2024/01/22 18:29:50;;;;;;;11.10;6.40;;;;;;;3.47;61.94;100157.65;213971;1268;61361;-71
2024/01/22 18:34:43;;;;;;;12.30;6.20;;;;;;;3.47;61.98;100154.03;213924;1272;61278;-71
2024/01/22 18:39:36;;;;;;;12.40;7.60;;;;;;;3.45;62.07;100163.58;213786;1272;61373;-71
2024/01/22 18:44:28;;;;;;;11.00;6.00;;;;;;;3.44;62.11;100163.88;213846;1272;61284;-71
2024/01/22 18:49:21;;;;;;;11.60;7.20;;;;;;;3.45;61.43;100154.15;213816;1268;61370;-71
2024/01/22 18:54:16;;;;;;;13.00;7.30;;;;;;;3.52;61.43;100143.59;213887;1268;61375;-71
2024/01/22 18:59:09;;;;;;;10.30;6.20;;;;;;;3.54;61.01;100149.16;213927;1272;66437;-72
2024/01/22 19:04:01;;;;;;;10.10;6.20;;;;;;;3.54;60.91;100157.20;213882;1270;61745;-72
2024/01/22 19:08:54;;;;;;;13.70;6.80;;;;;;;3.58;60.67;100160.27;213583;1268;61374;-72
2024/01/22 19:13:47;;;;;;;9.00;6.30;;;;;;;3.59;60.58;100161.15;213642;1269;61346;-71
2024/01/22 19:18:40;;;;;;;12.00;6.90;;;;;;;3.55;60.50;100157.27;213584;1268;61310;-72
2024/01/22 19:23:33;;;;;;;8.90;6.30;;;;;;;3.57;60.42;100147.39;213626;1272;61293;-72
2024/01/22 19:28:26;;;;;;;10.20;6.30;;;;;;;3.54;60.69;100141.45;213902;1273;61357;-72
2024/01/22 19:33:18;;;;;;;12.70;8.00;;;;;;;3.52;60.60;100145.48;213788;1268;61268;-72
2024/01/22 19:38:11;;;;;;;12.80;6.80;;;;;;;3.52;60.62;100128.50;213890;1273;61252;-72
2024/01/22 19:43:04;;;;;;;12.50;7.10;;;;;;;3.53;60.49;100130.08;213810;1271;61382;-72
2024/01/22 19:47:58;;;;;;;13.10;6.70;;;;;;;3.52;60.60;100131.77;213820;1271;61291;-72
2024/01/22 19:52:53;;;;;;;11.90;7.30;;;;;;;3.52;60.47;100132.28;214046;1272;61307;-72
2024/01/22 19:57:46;;;;;;;10.20;6.40;;;;;;;3.52;60.41;100120.98;213557;1270;73761;-73
2024/01/22 20:02:39;;;;;;;12.90;7.20;;;;;;;3.51;60.58;100119.91;213698;1268;70112;-73
2024/01/22 20:07:32;;;;;;;16.40;8.50;;;;;;;3.54;59.85;100110.42;213778;1268;61355;-73
2024/01/22 20:12:28;;;;;;;13.20;7.20;;;;;;;3.56;60.64;100116.30;213289;1273;67147;-72
2024/01/22 20:17:21;;;;;;;11.70;6.20;;;;;;;3.56;59.75;100107.07;213351;1268;61912;-72
2024/01/22 20:22:14;;;;;;;16.20;8.00;;;;;;;3.58;60.54;100105.59;213703;1272;61291;-72
2024/01/22 20:27:06;;;;;;;13.90;8.00;;;;;;;3.56;60.61;100109.30;213649;1272;61271;-73
2024/01/22 20:32:01;;;;;;;13.50;7.00;;;;;;;3.52;61.45;100109.65;213511;1272;61283;-72
2024/01/22 20:36:54;;;;;;;15.80;7.80;;;;;;;3.47;61.36;100110.34;213916;1272;67508;-72
2024/01/22 20:41:47;;;;;;;14.20;8.20;;;;;;;3.41;61.37;100114.59;213673;1268;61296;-72
2024/01/22 20:46:42;;;;;;;12.30;7.80;;;;;;;3.42;61.41;100104.36;213763;1270;73884;-72
2024/01/22 20:51:37;;;;;;;14.20;7.90;;;;;;;3.43;61.95;100104.75;213785;1272;73512;-72
2024/01/22 20:56:30;;;;;;;13.80;7.30;;;;;;;3.46;61.69;100107.58;213871;1271;61314;-72
2024/01/22 21:01:23;;;;;;;14.50;7.50;;;;;;;3.47;61.62;100114.45;213845;1272;65885;-73
2024/01/22 21:06:16;;;;;;;12.20;6.90;;;;;;;3.46;62.31;100118.68;213867;1272;61280;-72
2024/01/22 21:11:10;;;;;;;13.00;7.70;;;;;;;3.47;62.31;100125.95;213838;1272;73370;-72
2024/01/22 21:16:04;;;;;;;14.10;7.20;;;;;;;3.45;62.63;100129.33;213826;1270;70842;-72
2024/01/22 21:27:04;;;;;;;14.40;8.20;;;;;;;3.40;63.00;100122.95;212270;1276;66438;-73
2024/01/22 21:31:57;;;;;;;12.90;6.90;;;;;;;3.36;63.08;100131.71;212460;1277;61349;-73
2024/01/22 21:36:50;;;;;;;13.70;7.70;;;;;;;3.39;62.95;100148.98;212477;1277;61866;-72
2024/01/22 21:41:43;;;;;;;12.20;7.30;;;;;;;3.36;63.37;100149.89;212485;1278;61479;-73
2024/01/22 21:46:36;;;;;;;13.50;7.10;;;;;;;3.30;63.66;100151.71;212292;1276;61258;-73
2024/01/22 21:51:29;;;;;;;13.00;6.80;;;;;;;3.33;63.72;100158.50;212405;1276;65736;-73
2024/01/22 21:56:21;;;;;;;12.50;7.30;;;;;;;3.42;64.09;100169.10;212506;1277;61332;-73
2024/01/22 22:01:14;;;;;;;9.80;6.40;;;;;;;3.37;64.63;100182.63;212611;1273;62285;-73
2024/01/22 22:06:07;;;;;;;11.60;6.70;;;;;;;3.30;64.66;100184.61;213727;1270;61312;-73
2024/01/22 22:11:00;;;;;;;12.70;6.40;;;;;;;3.29;65.58;100193.84;213743;1270;61301;-73
2024/01/22 22:15:54;;;;;;;12.20;6.50;;;;;;;3.30;66.90;100200.89;213890;1273;61271;-73
2024/01/22 22:20:47;;;;;;;11.30;6.40;;;;;;;3.34;68.80;100211.46;213841;1270;61329;-74
2024/01/22 22:25:43;;;;;;;11.30;7.00;;;;;;;3.34;70.35;100216.95;213828;1270;73642;-73